Time;durP1;ratioP1;P1;durP2;ratioP2;P2;SDS_P1;SDS_P2;PMS_P1;PMS_P2;Temp;Humidity;BMP_temperature;BMP_pressure;BME280_temperature;BME280_humidity;BME280_pressure;Samples;Min_cycle;Max_cycle;Signal;HPM_P1;HPM_P2
2024/03/08 00:00:09;;;;;;;22.15;14.27;;;;;;;3.84;65.37;96607.91;5015429;28;20096;-77
2024/03/08 00:02:37;;;;;;;20.95;13.57;;;;;;;3.82;65.22;96609.03;5015522;28;20049;-77
2024/03/08 00:05:08;;;;;;;20.30;13.38;;;;;;;3.80;65.42;96616.09;5015329;28;20045;-76
2024/03/08 00:07:36;;;;;;;21.95;14.38;;;;;;;3.77;65.29;96606.06;5015378;28;20049;-77
2024/03/08 00:10:04;;;;;;;19.45;13.65;;;;;;;3.75;65.54;96613.13;5015634;28;20065;-76
2024/03/08 00:12:31;;;;;;;23.90;14.32;;;;;;;3.70;65.35;96600.63;5016564;28;20490;-77
2024/03/08 00:14:59;;;;;;;22.02;13.80;;;;;;;3.70;65.75;96601.44;5032826;28;20041;-76
2024/03/08 00:17:27;;;;;;;24.98;14.48;;;;;;;3.69;65.27;96599.78;5014481;28;20058;-77
2024/03/08 00:19:55;;;;;;;19.55;12.10;;;;;;;3.65;65.30;96600.22;5013399;28;20394;-77
2024/03/08 00:22:24;;;;;;;24.27;14.93;;;;;;;3.62;65.34;96598.72;5013661;28;20068;-76
2024/03/08 00:24:52;;;;;;;20.05;12.68;;;;;;;3.63;65.41;96602.13;5015043;28;20054;-76
2024/03/08 00:27:20;;;;;;;19.85;13.05;;;;;;;3.62;65.40;96601.31;5014883;28;20049;-77
2024/03/08 00:29:48;;;;;;;21.70;13.32;;;;;;;3.61;65.45;96591.16;5015353;28;20457;-77
2024/03/08 00:32:17;;;;;;;19.63;13.63;;;;;;;3.59;65.51;96591.28;5015250;28;20060;-77
2024/03/08 00:34:44;;;;;;;20.23;13.15;;;;;;;3.58;65.72;96589.63;5013157;28;20052;-77
2024/03/08 00:37:12;;;;;;;19.52;12.20;;;;;;;3.56;65.46;96588.97;5012870;28;20089;-76
2024/03/08 00:39:40;;;;;;;22.10;14.25;;;;;;;3.55;65.44;96584.78;5012959;28;20085;-77
2024/03/08 00:42:08;;;;;;;21.80;13.73;;;;;;;3.54;65.43;96584.91;5012949;28;20053;-77
2024/03/08 00:44:36;;;;;;;20.08;12.80;;;;;;;3.50;65.58;96574.06;5013064;28;20049;-77
2024/03/08 00:47:04;;;;;;;22.70;13.38;;;;;;;3.46;65.62;96577.88;5013309;28;20054;-76
2024/03/08 00:49:32;;;;;;;19.35;12.60;;;;;;;3.42;65.79;96566.19;5014353;28;20108;-77
2024/03/08 00:51:59;;;;;;;21.88;13.80;;;;;;;3.41;66.27;96564.56;5014660;28;20056;-76
2024/03/08 00:54:27;;;;;;;23.08;14.40;;;;;;;3.40;66.22;96568.09;5014210;28;20108;-77
2024/03/08 00:56:56;;;;;;;21.65;14.27;;;;;;;3.38;66.19;96573.38;5014363;28;20470;-76
2024/03/08 00:59:23;;;;;;;21.48;13.77;;;;;;;3.32;66.36;96566.19;5014578;28;20089;-76
2024/03/08 01:01:51;;;;;;;20.88;13.27;;;;;;;3.30;66.55;96563.78;5014666;28;20084;-76
2024/03/08 01:04:20;;;;;;;21.50;13.60;;;;;;;3.33;66.31;96561.88;5014388;28;20078;-77
2024/03/08 01:06:47;;;;;;;22.38;13.82;;;;;;;3.29;66.24;96556.97;5013980;28;20476;-77
2024/03/08 01:09:17;;;;;;;20.55;13.18;;;;;;;3.29;66.74;96559.53;5014262;28;20502;-77
2024/03/08 01:11:44;;;;;;;23.45;12.88;;;;;;;3.29;66.86;96554.38;5015453;28;20505;-77
2024/03/08 01:14:14;;;;;;;20.98;13.63;;;;;;;3.34;66.99;96560.91;5025315;28;20084;-76
2024/03/08 01:16:41;;;;;;;21.85;13.52;;;;;;;3.37;66.85;96547.72;5031568;28;20116;-76
2024/03/08 01:19:09;;;;;;;19.63;12.98;;;;;;;3.41;66.59;96541.34;5024307;28;20045;-77
2024/03/08 01:21:36;;;;;;;22.83;13.48;;;;;;;3.44;67.28;96548.81;5018549;28;20528;-77
2024/03/08 01:24:04;;;;;;;22.23;14.02;;;;;;;3.47;66.64;96545.97;5016437;28;20074;-77
2024/03/08 01:26:34;;;;;;;19.38;13.18;;;;;;;3.47;67.56;96541.59;5014474;28;20132;-76
2024/03/08 01:29:02;;;;;;;23.23;13.80;;;;;;;3.49;67.33;96531.16;5014479;28;20497;-77
2024/03/08 01:31:32;;;;;;;19.30;13.35;;;;;;;3.52;67.79;96536.06;5013976;28;20046;-76
2024/03/08 01:34:00;;;;;;;21.40;14.02;;;;;;;3.58;68.79;96530.31;5013647;28;20509;-77
2024/03/08 01:36:27;;;;;;;21.10;13.75;;;;;;;3.65;68.27;96541.72;5013889;28;20137;-77
2024/03/08 01:38:55;;;;;;;20.90;13.68;;;;;;;3.64;67.82;96523.78;5013778;28;20046;-77
2024/03/08 01:41:22;;;;;;;23.95;14.27;;;;;;;3.58;66.78;96520.00;5013640;28;20096;-77
2024/03/08 01:43:52;;;;;;;26.42;15.45;;;;;;;3.55;66.57;96514.31;5013600;28;20104;-77
2024/03/08 06:31:07;;;;;;;26.50;15.83;;;;;;;3.05;68.67;96347.84;5317626;23;20062;-82
2024/03/08 06:45:36;;;;;;;21.92;14.65;;;;;;;2.88;69.18;96347.59;4988064;23;20478;-79
2024/03/08 06:48:09;;;;;;;23.85;15.20;;;;;;;2.87;69.28;96346.00;4993254;28;20081;-76
2024/03/08 06:50:38;;;;;;;24.80;15.10;;;;;;;2.89;69.08;96344.09;4995660;28;20052;-77
2024/03/08 06:53:06;;;;;;;29.80;16.85;;;;;;;2.92;69.55;96349.91;4994299;28;20050;-77
2024/03/08 06:55:33;;;;;;;26.67;16.63;;;;;;;2.99;69.68;96345.81;4982766;28;20105;-77
2024/03/08 06:58:01;;;;;;;25.90;16.55;;;;;;;3.08;69.97;96350.97;4969445;28;20055;-77
2024/03/08 07:00:30;;;;;;;27.80;16.95;;;;;;;3.14;70.31;96346.19;4964237;28;20129;-78
2024/03/08 07:03:00;;;;;;;25.48;15.93;;;;;;;3.20;70.48;96343.84;4956611;28;20047;-78
2024/03/08 07:05:28;;;;;;;24.58;16.08;;;;;;;3.27;70.22;96342.31;4970146;28;20102;-77
2024/03/08 07:07:58;;;;;;;28.10;16.40;;;;;;;3.34;69.94;96341.75;4959882;28;20521;-77
2024/03/08 07:10:26;;;;;;;24.45;14.55;;;;;;;3.36;69.45;96345.81;4955225;28;20102;-77
2024/03/08 07:12:54;;;;;;;27.20;15.48;;;;;;;3.38;69.78;96343.91;4964485;28;20140;-77
2024/03/08 07:15:23;;;;;;;28.17;16.05;;;;;;;3.44;70.44;96337.38;4968817;28;20109;-78
2024/03/08 07:17:52;;;;;;;28.15;17.17;;;;;;;3.46;70.02;96336.28;4968178;28;20053;-79
2024/03/08 07:20:22;;;;;;;25.10;16.13;;;;;;;3.49;69.72;96337.75;4962466;28;20043;-78
2024/03/08 07:22:50;;;;;;;22.85;15.55;;;;;;;3.48;68.85;96342.09;4963332;28;20082;-78
2024/03/08 07:25:21;;;;;;;26.70;16.25;;;;;;;3.42;68.21;96336.72;4968736;28;20059;-78
2024/03/08 07:27:51;;;;;;;26.30;15.68;;;;;;;3.38;68.69;96331.00;4973299;28;20426;-77
2024/03/08 07:33:02;;;;;;;24.15;16.00;;;;;;;3.32;67.88;96323.03;4965045;28;20051;-77
2024/03/08 07:35:31;;;;;;;27.95;16.77;;;;;;;3.22;67.99;96318.75;4972687;28;20059;-77
2024/03/08 07:38:00;;;;;;;25.58;16.30;;;;;;;3.20;68.50;96322.44;4973349;28;20058;-77
2024/03/08 07:40:28;;;;;;;27.92;17.08;;;;;;;3.21;69.28;96311.16;4973239;28;20046;-77
2024/03/08 07:42:56;;;;;;;27.08;17.27;;;;;;;3.20;68.44;96320.66;4972565;28;20047;-77
2024/03/08 07:45:24;;;;;;;27.27;16.65;;;;;;;3.17;68.84;96320.13;4959799;28;20137;-79
2024/03/08 07:47:53;;;;;;;30.27;17.27;;;;;;;3.18;68.69;96312.25;4977454;28;20074;-80
2024/03/08 07:50:22;;;;;;;27.38;16.50;;;;;;;3.21;68.93;96311.94;4986117;28;20066;-77
2024/03/08 07:52:51;;;;;;;31.05;17.85;;;;;;;3.24;70.25;96313.47;4995791;28;20157;-77
2024/03/08 07:55:19;;;;;;;29.08;17.20;;;;;;;3.26;69.28;96311.56;4982913;28;20075;-77
2024/03/08 07:57:48;;;;;;;29.40;17.10;;;;;;;3.22;69.00;96311.03;4971313;28;20083;-78
2024/03/08 08:00:18;;;;;;;30.23;17.65;;;;;;;3.22;68.88;96312.78;4973152;28;20093;-77
2024/03/08 08:02:46;;;;;;;30.00;17.48;;;;;;;3.24;69.44;96313.47;4968867;28;20055;-78
2024/03/08 08:05:14;;;;;;;30.80;19.00;;;;;;;3.24;68.89;96301.38;4958242;28;20067;-77
2024/03/08 08:07:45;;;;;;;30.20;18.25;;;;;;;3.24;69.84;96309.09;4961827;28;20118;-78
2024/03/08 08:10:18;;;;;;;29.70;17.08;;;;;;;3.28;69.45;96307.88;4958065;29;20055;-77
2024/03/08 08:12:46;;;;;;;32.15;17.42;;;;;;;3.29;69.68;96303.53;4972306;28;20493;-77
2024/03/08 08:15:15;;;;;;;30.20;17.20;;;;;;;3.29;69.04;96306.91;4974891;28;20097;-77
2024/03/08 08:17:43;;;;;;;30.08;16.90;;;;;;;3.24;68.27;96301.38;4974597;28;20466;-78
2024/03/08 08:20:11;;;;;;;29.50;17.67;;;;;;;3.18;68.58;96303.72;4966081;28;20114;-78
2024/03/08 08:22:40;;;;;;;33.88;18.38;;;;;;;3.16;68.33;96303.84;4957010;28;20499;-78
2024/03/08 08:25:08;;;;;;;29.42;17.80;;;;;;;3.15;68.55;96296.25;4970317;28;20061;-78
2024/03/08 08:27:37;;;;;;;34.58;18.42;;;;;;;3.17;68.71;96300.34;4973229;28;20051;-78
2024/03/08 08:30:08;;;;;;;31.25;17.40;;;;;;;3.16;68.93;96292.72;4960454;28;20512;-78
2024/03/08 08:32:36;;;;;;;29.77;17.05;;;;;;;3.19;68.48;96293.28;4974351;28;20047;-79
2024/03/08 08:35:05;;;;;;;30.25;17.00;;;;;;;3.20;69.08;96288.91;4968690;28;20054;-81
2024/03/08 08:37:33;;;;;;;32.03;17.67;;;;;;;3.22;69.03;96287.00;4965442;28;20047;-80
2024/03/08 08:40:05;;;;;;;32.47;17.90;;;;;;;3.24;68.77;96280.75;4975202;28;20058;-79
2024/03/08 08:42:33;;;;;;;27.42;17.50;;;;;;;3.24;68.38;96275.59;4971999;28;20054;-80
2024/03/08 08:45:04;;;;;;;29.50;18.55;;;;;;;3.26;68.59;96284.00;4972144;28;20117;-80
2024/03/08 08:47:42;;;;;;;30.55;19.05;;;;;;;3.29;68.12;96273.38;4960062;28;20075;-80
2024/03/08 08:50:11;;;;;;;34.13;18.45;;;;;;;3.33;69.09;96273.13;4959906;28;20043;-81
2024/03/08 08:52:39;;;;;;;30.33;18.45;;;;;;;3.44;69.38;96278.06;4975703;28;20057;-80
2024/03/08 08:55:09;;;;;;;31.38;17.10;;;;;;;3.55;69.47;96280.44;4979274;28;20050;-80
2024/03/08 08:57:35;;;;;;;31.17;17.98;;;;;;;3.61;68.54;96287.59;4976960;28;20062;-79
2024/03/08 09:00:07;;;;;;;32.58;19.08;;;;;;;3.64;69.57;96276.97;4975882;28;20558;-80
2024/03/08 09:02:36;;;;;;;33.17;18.75;;;;;;;3.74;69.69;96283.84;4975225;28;20051;-79
2024/03/08 09:05:05;;;;;;;29.80;17.20;;;;;;;3.79;68.81;96279.06;4976546;28;20098;-79
2024/03/08 09:07:33;;;;;;;32.53;18.33;;;;;;;3.80;68.12;96271.16;4973156;28;20051;-80
2024/03/08 09:10:02;;;;;;;30.77;18.67;;;;;;;3.80;67.19;96273.72;4957474;29;20506;-79
2024/03/08 09:12:44;;;;;;;;;;;;;;;3.77;67.34;96275.81;4957506;28;20055;-79
2024/03/08 09:15:13;;;;;;;31.83;18.13;;;;;;;3.72;68.21;96273.69;4957697;28;19922;-80
2024/03/08 09:17:41;;;;;;;32.00;19.23;;;;;;;3.68;67.58;96268.00;4959118;28;20075;-80
2024/03/08 09:20:14;;;;;;;30.65;18.33;;;;;;;3.65;67.62;96264.88;4956727;28;20134;-79
2024/03/08 09:22:44;;;;;;;33.53;18.63;;;;;;;3.65;67.71;96273.47;4956735;28;20079;-79
2024/03/08 09:25:12;;;;;;;29.75;17.92;;;;;;;3.68;67.44;96262.84;4957751;28;20051;-79
2024/03/08 09:27:41;;;;;;;32.00;19.30;;;;;;;3.72;68.16;96266.75;4956922;29;20056;-79
2024/03/08 09:30:09;;;;;;;31.73;18.52;;;;;;;3.78;69.16;96255.00;4980706;28;20031;-78
2024/03/08 09:32:39;;;;;;;31.67;18.45;;;;;;;3.86;68.66;96254.28;4994158;28;20046;-80
2024/03/08 09:35:07;;;;;;;32.28;19.70;;;;;;;3.88;68.39;96248.00;4991869;28;20058;-79
2024/03/08 09:37:35;;;;;;;33.65;19.25;;;;;;;3.94;68.01;96253.56;4990622;28;20040;-79
2024/03/08 09:40:09;;;;;;;32.85;19.10;;;;;;;3.99;67.69;96254.72;4963480;28;20047;-80
2024/03/08 09:42:38;;;;;;;29.63;18.27;;;;;;;4.03;67.07;96245.72;4965955;28;20054;-79
2024/03/08 09:45:10;;;;;;;32.88;18.50;;;;;;;4.09;67.60;96246.91;4961081;28;20055;-79
2024/03/08 09:47:41;;;;;;;29.05;17.70;;;;;;;4.15;67.03;96245.47;4957914;28;20054;-80
2024/03/08 09:50:10;;;;;;;31.70;18.10;;;;;;;4.20;66.71;96245.81;4957247;29;20061;-79
2024/03/08 09:52:37;;;;;;;31.58;19.52;;;;;;;4.19;66.66;96250.19;4957208;29;20047;-79
2024/03/08 09:55:07;;;;;;;30.40;18.00;;;;;;;4.17;66.54;96240.97;4956520;28;20519;-78
2024/03/08 09:57:37;;;;;;;34.55;19.25;;;;;;;4.21;67.56;96234.56;4957045;29;20110;-79
2024/03/08 10:00:18;;;;;;;32.13;19.58;;;;;;;4.27;66.91;96241.69;4956201;28;20063;-79
2024/03/08 10:02:47;;;;;;;32.35;19.42;;;;;;;4.29;66.43;96235.41;4976041;28;20051;-79
2024/03/08 10:05:15;;;;;;;30.60;19.33;;;;;;;4.37;66.59;96232.06;4971313;28;20081;-79
2024/03/08 10:07:42;;;;;;;32.70;20.08;;;;;;;4.52;66.41;96225.38;4971165;28;20138;-79
2024/03/08 10:10:11;;;;;;;34.60;20.55;;;;;;;4.73;67.12;96221.63;4969044;28;20051;-80
2024/03/08 10:12:40;;;;;;;33.30;20.35;;;;;;;5.00;68.37;96222.38;4970863;28;20055;-79
2024/03/08 10:15:09;;;;;;;32.08;18.08;;;;;;;5.26;66.38;96223.09;4972871;28;20140;-80
2024/03/08 10:17:36;;;;;;;27.65;18.10;;;;;;;5.43;65.32;96217.97;4964642;28;20049;-80
2024/03/08 10:20:15;;;;;;;32.50;19.55;;;;;;;5.56;63.91;96223.50;4955376;28;20051;-79
2024/03/08 10:22:44;;;;;;;33.38;18.55;;;;;;;5.70;63.95;96220.25;4955456;29;20098;-79
2024/03/08 10:25:25;;;;;;;30.13;18.23;;;;;;;5.77;63.68;96225.59;4954876;28;20059;-80
2024/03/08 10:27:52;;;;;;;28.17;17.90;;;;;;;5.74;63.09;96226.75;4959834;28;20061;-79
2024/03/08 10:30:21;;;;;;;32.53;18.45;;;;;;;5.69;63.05;96216.06;4973008;28;20055;-79
2024/03/08 10:32:49;;;;;;;27.95;18.20;;;;;;;5.70;63.68;96211.69;4973415;28;20047;-79
2024/03/08 10:35:20;;;;;;;30.55;17.63;;;;;;;5.88;63.11;96222.72;4972687;28;20054;-78
2024/03/08 10:37:58;;;;;;;27.88;18.63;;;;;;;6.04;62.64;96221.94;4964658;28;20146;-79
2024/03/08 10:40:27;;;;;;;30.02;18.35;;;;;;;6.10;62.34;96221.28;4954587;29;20492;-79
2024/03/08 10:42:58;;;;;;;29.23;18.98;;;;;;;6.21;62.32;96216.75;4962156;28;20078;-80
2024/03/08 10:45:36;;;;;;;32.42;18.55;;;;;;;6.55;61.40;96214.72;4965559;28;20655;-78
2024/03/08 10:48:27;;;;;;;27.95;16.75;;;;;;;6.95;60.75;96219.94;4954888;28;20062;-79
2024/03/08 10:50:58;;;;;;;29.67;18.23;;;;;;;7.33;59.40;96212.34;4954452;29;20047;-79
2024/03/08 10:53:29;;;;;;;31.95;19.17;;;;;;;7.54;59.30;96220.31;4958056;28;20159;-78
2024/03/08 10:55:57;;;;;;;30.77;18.45;;;;;;;7.74;58.62;96210.28;4973260;28;20585;-78
2024/03/08 10:58:27;;;;;;;27.60;19.50;;;;;;;7.83;57.14;96211.84;4970944;28;20050;-79
2024/03/08 11:00:55;;;;;;;30.27;18.17;;;;;;;7.90;57.80;96204.16;4968273;28;20520;-79
2024/03/08 11:03:48;;;;;;;29.60;18.38;;;;;;;8.20;56.64;96201.66;4960214;28;20459;-79
2024/03/08 11:06:22;;;;;;;30.63;19.08;;;;;;;8.50;56.61;96199.91;4963313;28;20078;-79
2024/03/08 11:08:51;;;;;;;24.27;16.60;;;;;;;8.90;56.01;96202.22;4972890;28;20428;-79
2024/03/08 11:11:29;;;;;;;26.30;17.25;;;;;;;9.26;53.83;96190.06;4967175;28;20050;-78
2024/03/08 11:14:02;;;;;;;28.95;17.58;;;;;;;9.64;54.17;96189.06;4966229;28;20533;-79
2024/03/08 11:16:48;;;;;;;27.38;18.33;;;;;;;9.89;51.66;96185.09;4960751;28;20054;-79
2024/03/08 11:19:28;;;;;;;25.05;16.92;;;;;;;10.09;51.44;96174.03;4954683;28;20117;-79
2024/03/08 11:22:02;;;;;;;28.85;18.38;;;;;;;10.42;50.94;96166.47;4954867;28;20048;-80
2024/03/08 11:24:39;;;;;;;26.38;17.13;;;;;;;10.84;52.85;96166.47;4953771;29;20047;-79
2024/03/08 11:27:09;;;;;;;28.05;18.30;;;;;;;11.24;50.87;96154.41;4957175;28;20055;-79
2024/03/08 11:29:37;;;;;;;26.30;19.02;;;;;;;11.53;49.45;96148.03;4957780;29;20134;-79
2024/03/08 11:32:06;;;;;;;26.80;18.13;;;;;;;11.69;48.40;96165.13;4963646;28;20090;-80
2024/03/08 11:34:34;;;;;;;28.58;18.58;;;;;;;11.80;48.65;96150.66;4958346;29;20515;-79
2024/03/08 11:37:05;;;;;;;27.25;18.45;;;;;;;12.02;46.91;96156.53;4959798;28;20058;-79
2024/03/08 11:39:33;;;;;;;25.23;17.52;;;;;;;12.28;48.01;96147.88;4958138;28;20047;-79
2024/03/08 11:42:00;;;;;;;28.33;17.80;;;;;;;12.58;46.72;96142.19;4972042;28;20043;-78
2024/03/08 11:44:28;;;;;;;24.27;17.33;;;;;;;12.86;48.07;96138.50;4976270;28;20082;-79
2024/03/08 11:46:56;;;;;;;23.38;16.73;;;;;;;13.23;46.68;96131.66;4975902;28;20133;-79
2024/03/08 11:49:24;;;;;;;22.33;16.33;;;;;;;13.57;45.56;96132.28;4976916;28;20054;-80
2024/03/08 11:51:53;;;;;;;23.90;16.50;;;;;;;13.88;44.03;96123.59;4972235;28;20046;-80
2024/03/08 11:54:23;;;;;;;25.45;17.27;;;;;;;14.09;44.55;96119.00;4964330;28;20047;-80
2024/03/08 11:56:53;;;;;;;27.73;17.90;;;;;;;14.26;42.58;96122.69;4960025;28;20054;-80
2024/03/08 11:59:21;;;;;;;23.60;16.48;;;;;;;14.45;43.02;96112.19;4973170;28;20075;-78
2024/03/08 12:02:03;;;;;;;23.35;15.80;;;;;;;14.68;41.34;96107.13;4969783;28;20047;-77
2024/03/08 12:04:31;;;;;;;26.42;16.65;;;;;;;14.95;42.72;96104.19;4968817;28;20057;-77
2024/03/08 12:07:02;;;;;;;23.98;17.00;;;;;;;15.19;41.23;96095.38;4976270;28;20142;-77
2024/03/08 12:09:31;;;;;;;24.08;17.85;;;;;;;15.36;40.60;96100.00;4976333;28;20171;-78
2024/03/08 12:11:59;;;;;;;22.98;17.08;;;;;;;15.37;39.88;96091.91;4971613;28;20500;-77
2024/03/08 12:14:27;;;;;;;23.80;17.20;;;;;;;15.25;40.28;96093.69;4962507;28;20097;-77
2024/03/08 12:16:54;;;;;;;25.23;17.35;;;;;;;15.20;40.50;96093.56;4967093;28;20077;-77
2024/03/08 12:19:22;;;;;;;21.08;16.27;;;;;;;15.03;40.42;96082.88;4959141;28;20082;-76
2024/03/08 12:21:50;;;;;;;24.15;16.77;;;;;;;14.81;40.21;96078.09;4966806;28;20154;-77
2024/03/08 12:24:19;;;;;;;23.42;16.95;;;;;;;14.52;40.43;96077.00;4976005;28;20187;-77
2024/03/08 12:26:49;;;;;;;25.75;17.42;;;;;;;14.22;40.25;96069.84;4974095;28;20102;-77
2024/03/08 12:29:19;;;;;;;22.05;16.48;;;;;;;13.90;41.06;96077.00;4956560;29;20404;-77
2024/03/08 12:31:48;;;;;;;21.23;16.02;;;;;;;13.64;41.98;96064.91;4964572;28;20082;-77
2024/03/08 12:34:16;;;;;;;25.38;16.90;;;;;;;13.52;43.00;96064.81;4975555;28;20051;-77
2024/03/08 12:36:51;;;;;;;22.23;16.42;;;;;;;13.41;42.43;96054.22;4974527;28;20051;-78
2024/03/08 12:39:22;;;;;;;21.60;15.52;;;;;;;13.37;43.72;96059.06;4973675;28;20042;-77
2024/03/08 12:41:52;;;;;;;22.75;15.57;;;;;;;13.35;42.44;96048.00;4991226;28;20074;-78
2024/03/08 12:44:21;;;;;;;22.10;14.82;;;;;;;13.20;42.08;96050.88;4985820;28;20054;-78
2024/03/08 12:46:51;;;;;;;20.60;15.13;;;;;;;12.98;43.46;96038.13;4978985;28;20112;-79
2024/03/08 12:49:22;;;;;;;23.85;15.70;;;;;;;12.91;43.24;96037.38;4958831;29;20051;-77
2024/03/08 12:51:50;;;;;;;19.83;15.40;;;;;;;12.84;43.21;96051.50;4956291;28;20447;-77
2024/03/08 12:54:17;;;;;;;22.33;16.95;;;;;;;12.63;43.40;96029.06;4957258;28;20062;-77
2024/03/08 12:56:45;;;;;;;23.55;16.67;;;;;;;12.47;43.89;96022.50;4956453;28;20470;-77
2024/03/08 12:59:14;;;;;;;21.73;15.50;;;;;;;12.29;43.51;96026.56;4957141;28;20047;-77
2024/03/08 13:01:42;;;;;;;21.25;14.85;;;;;;;11.99;44.12;96015.78;4960292;28;20086;-77
2024/03/08 13:04:11;;;;;;;24.48;16.50;;;;;;;11.77;44.48;96004.75;4971348;28;20514;-80
2024/03/08 13:06:40;;;;;;;22.83;16.50;;;;;;;11.63;44.77;96003.16;4992503;23;20047;-87
2024/03/08 13:09:08;;;;;;;19.90;14.65;;;;;;;11.51;44.88;95998.53;4977837;28;20046;-84
2024/03/08 13:11:36;;;;;;;21.08;14.75;;;;;;;11.43;44.85;96003.97;4980164;28;20105;-85
2024/03/08 13:14:06;;;;;;;20.15;14.60;;;;;;;11.31;45.09;96005.59;4967425;28;20408;-90
2024/03/08 13:16:35;;;;;;;21.60;14.63;;;;;;;11.23;46.16;95998.75;4969892;28;20427;-88
2024/03/08 13:19:03;;;;;;;20.60;15.05;;;;;;;11.25;47.34;95996.75;4961781;28;20051;-88
2024/03/08 13:21:31;;;;;;;20.35;14.20;;;;;;;11.31;45.84;95985.50;4961709;28;20131;-88
2024/03/08 13:24:01;;;;;;;21.23;14.40;;;;;;;11.37;45.98;95996.97;4961743;28;20122;-85
2024/03/08 13:26:32;;;;;;;25.00;14.75;;;;;;;11.41;45.84;95979.84;4960877;28;20059;-90
2024/03/08 13:29:00;;;;;;;23.85;15.38;;;;;;;11.45;45.98;95975.84;4945640;29;20087;-82
2024/03/08 13:31:29;;;;;;;20.65;15.45;;;;;;;11.51;45.70;95980.25;4957248;28;20434;-84
2024/03/08 13:33:58;;;;;;;20.65;14.90;;;;;;;11.53;45.77;95974.84;4962255;28;20051;-88
2024/03/08 13:36:29;;;;;;;22.88;14.45;;;;;;;11.52;45.60;95966.22;4960763;28;20054;-81
2024/03/08 13:38:59;;;;;;;18.98;13.65;;;;;;;11.52;45.52;95973.22;4960049;29;20055;-87
2024/03/08 13:41:27;;;;;;;21.85;14.73;;;;;;;11.50;45.97;95965.59;4960952;29;20047;-86
2024/03/08 13:43:59;;;;;;;19.85;14.43;;;;;;;11.50;48.87;95946.50;4947824;29;20099;-85
2024/03/08 13:46:27;;;;;;;21.73;15.00;;;;;;;11.53;46.93;95959.16;4951875;28;20051;-87
2024/03/08 13:48:55;;;;;;;19.45;14.27;;;;;;;11.47;45.97;95945.09;4950457;28;20055;-87
2024/03/08 13:51:25;;;;;;;19.15;13.25;;;;;;;11.33;45.64;95943.53;4940601;29;20106;-83
2024/03/08 13:53:53;;;;;;;20.25;13.65;;;;;;;11.19;45.74;95936.69;4950940;29;20070;-85
2024/03/08 13:56:21;;;;;;;17.85;12.43;;;;;;;11.12;45.93;95936.69;4959412;28;20055;-85
2024/03/08 13:58:49;;;;;;;21.67;15.05;;;;;;;11.08;46.20;95933.69;4948046;28;20043;-83
2024/03/08 14:01:21;;;;;;;19.05;13.57;;;;;;;11.02;46.01;95937.13;4944870;29;20083;-82
2024/03/08 14:03:48;;;;;;;19.67;13.75;;;;;;;10.97;46.22;95936.88;4940689;29;20040;-81
2024/03/08 14:06:16;;;;;;;22.77;13.20;;;;;;;10.96;46.40;95935.28;4949124;28;20130;-80
2024/03/08 14:08:53;;;;;;;18.83;13.55;;;;;;;10.99;49.42;95934.88;4954548;29;20079;-83
2024/03/08 14:11:21;;;;;;;18.70;13.32;;;;;;;11.02;47.06;95926.69;4958973;29;20082;-80
2024/03/08 14:13:48;;;;;;;19.90;14.18;;;;;;;11.05;46.61;95915.03;4961088;29;20051;-83
2024/03/08 14:16:16;;;;;;;18.17;12.50;;;;;;;11.09;46.79;95909.19;4950855;28;20043;-83
2024/03/08 14:18:44;;;;;;;19.90;13.98;;;;;;;11.14;46.98;95909.38;4943868;29;20048;-80
2024/03/08 14:21:12;;;;;;;20.30;14.43;;;;;;;11.14;46.54;95909.38;4951263;28;20535;-86
2024/03/08 14:23:42;;;;;;;18.92;13.07;;;;;;;11.13;46.12;95901.78;4942246;29;20460;-82
2024/03/08 14:26:11;;;;;;;19.90;13.82;;;;;;;11.14;46.58;95906.78;4948032;28;20047;-82
2024/03/08 14:28:39;;;;;;;20.08;13.63;;;;;;;11.17;46.39;95902.16;4958189;28;20138;-80
2024/03/08 14:31:10;;;;;;;23.13;14.95;;;;;;;11.14;46.15;95898.16;4967378;28;20118;-84
2024/03/08 14:33:39;;;;;;;18.27;12.85;;;;;;;11.10;46.85;95895.13;4948414;29;20490;-85
2024/03/08 14:36:07;;;;;;;16.95;11.73;;;;;;;11.12;46.07;95887.09;4955910;28;20082;-87
2024/03/08 14:38:37;;;;;;;16.08;12.30;;;;;;;11.09;45.66;95884.91;4949644;28;20125;-86
2024/03/08 14:41:07;;;;;;;17.20;11.55;;;;;;;11.02;45.64;95884.09;4955755;29;20050;-89
2024/03/08 14:43:36;;;;;;;18.75;12.80;;;;;;;11.01;45.73;95885.91;4955263;29;20074;-87
2024/03/08 14:46:04;;;;;;;17.60;12.13;;;;;;;11.01;45.84;95880.69;4956468;29;20048;-88
2024/03/08 14:48:32;;;;;;;18.90;12.00;;;;;;;11.01;45.65;95875.47;4955181;29;20051;-88
2024/03/08 14:50:59;;;;;;;21.92;12.13;;;;;;;11.02;45.89;95874.47;4943659;29;20138;-89
2024/03/08 14:53:27;;;;;;;18.13;12.30;;;;;;;11.02;45.92;95876.25;4942224;29;20052;-86
2024/03/08 14:55:55;;;;;;;16.67;12.18;;;;;;;10.99;45.60;95880.09;4939800;29;20139;-82
2024/03/08 14:58:24;;;;;;;16.77;12.45;;;;;;;10.94;45.63;95869.47;4942261;29;20067;-88
2024/03/08 15:00:55;;;;;;;17.35;11.98;;;;;;;10.95;46.59;95875.47;4950026;28;20472;-89
2024/03/08 15:03:26;;;;;;;17.15;11.73;;;;;;;10.97;46.27;95874.25;4939313;29;20056;-86
2024/03/08 15:05:54;;;;;;;16.55;11.30;;;;;;;10.96;45.41;95867.44;4944001;29;20142;-88
2024/03/08 15:08:22;;;;;;;17.58;11.82;;;;;;;10.89;45.19;95866.66;4938223;29;20139;-85
2024/03/08 15:10:53;;;;;;;19.23;12.35;;;;;;;10.86;45.30;95864.44;4937559;29;20078;-86
2024/03/08 15:13:24;;;;;;;15.65;11.10;;;;;;;10.84;45.27;95856.00;4941113;29;20055;-85
2024/03/08 15:15:55;;;;;;;22.17;11.63;;;;;;;10.80;45.23;95870.44;4954043;29;20436;-86
2024/03/08 15:18:34;;;;;;;15.75;11.68;;;;;;;10.76;45.59;95861.41;4956322;29;20112;-89
2024/03/08 15:21:09;;;;;;;18.35;11.60;;;;;;;10.69;44.85;95864.84;4939315;29;20051;-89
2024/03/08 15:23:37;;;;;;;16.98;11.65;;;;;;;10.62;45.25;95864.03;4937992;29;20054;-83
2024/03/08 15:26:07;;;;;;;18.20;12.50;;;;;;;10.59;45.47;95855.81;4938247;29;20052;-85
2024/03/08 15:28:36;;;;;;;17.75;12.32;;;;;;;10.57;45.78;95853.41;4946289;29;20055;-87
2024/03/08 15:31:08;;;;;;;17.15;11.65;;;;;;;10.61;46.05;95856.41;4945559;28;20051;-84
2024/03/08 15:33:42;;;;;;;15.80;11.35;;;;;;;10.64;45.73;95842.97;4953285;29;20055;-83
2024/03/08 15:36:11;;;;;;;20.13;11.85;;;;;;;10.66;46.27;95840.97;4946146;29;20055;-87
2024/03/08 15:38:39;;;;;;;16.13;11.45;;;;;;;10.66;46.05;95836.53;4938096;29;20060;-87
2024/03/08 15:41:09;;;;;;;15.85;11.10;;;;;;;10.68;45.55;95844.19;4944100;29;20043;-85
2024/03/08 15:43:37;;;;;;;15.85;11.32;;;;;;;10.70;45.54;95837.75;4953921;29;20051;-88
2024/03/08 15:46:07;;;;;;;15.20;9.95;;;;;;;10.67;45.41;95842.56;4947866;28;20055;-91
2024/03/08 15:48:37;;;;;;;18.00;12.27;;;;;;;10.62;46.15;95834.53;4938961;29;20044;-85
2024/03/08 15:51:06;;;;;;;15.77;10.65;;;;;;;10.61;45.89;95833.75;4941917;29;20062;-88
2024/03/08 15:53:34;;;;;;;16.48;10.70;;;;;;;10.64;47.48;95833.31;4942571;29;20071;-89
2024/03/08 15:56:05;;;;;;;13.27;10.15;;;;;;;10.67;48.81;95830.34;4950337;28;20062;-87
2024/03/08 15:58:36;;;;;;;15.93;11.07;;;;;;;10.71;46.88;95828.13;4958613;29;20054;-91
2024/03/08 16:01:07;;;;;;;15.73;11.05;;;;;;;10.73;46.09;95831.31;4962051;29;20058;-88
2024/03/08 16:03:35;;;;;;;14.73;11.07;;;;;;;10.74;45.90;95829.53;4953527;29;20056;-85
2024/03/08 16:06:04;;;;;;;14.80;10.55;;;;;;;10.74;45.21;95826.94;4952097;29;20082;-88
2024/03/08 16:08:33;;;;;;;14.00;9.73;;;;;;;10.62;45.15;95819.69;4949437;29;20055;-89
2024/03/08 16:11:05;;;;;;;14.88;10.15;;;;;;;10.53;44.87;95815.69;4963036;28;20145;-86
2024/03/08 16:13:37;;;;;;;;;;;;;;;10.46;44.81;95820.91;4968981;29;20134;-90
2024/03/08 16:16:07;;;;;;;15.87;10.30;;;;;;;10.41;45.27;95814.69;4964722;28;19930;-86
2024/03/08 16:18:37;;;;;;;16.80;11.23;;;;;;;10.33;45.44;95809.66;4967926;28;20278;-85
2024/03/08 16:21:06;;;;;;;14.68;10.00;;;;;;;10.26;45.43;95810.41;4961263;29;20059;-84
2024/03/08 16:23:35;;;;;;;12.93;9.70;;;;;;;10.22;45.49;95808.41;4968191;29;20111;-87
2024/03/08 16:26:04;;;;;;;17.92;10.50;;;;;;;10.17;46.14;95810.81;4974946;28;20061;-86
2024/03/08 16:28:38;;;;;;;14.32;10.20;;;;;;;10.15;46.23;95805.81;4970640;29;20051;-88
2024/03/08 16:31:10;;;;;;;14.00;9.98;;;;;;;10.14;45.99;95798.97;4967824;28;20541;-87